Terminal Aerodrome Forecast
Issued by NWS

Current Version | Previous Version | Text Only | Print | Product List | Glossary Off
Versions: 1 2 3 4 5 6 7 8 9 10 11 12 13

000
FTUS41 KRNK 201120
TAFLWB
TAF
KLWB 201120Z 2012/2112 02004KT P6SM BKN250
     FM201500 11007KT P6SM SCT250
     FM202300 13004KT P6SM SCT250=

USA.gov is the U.S. government's official web portal to all federal, state and local government web resources and services.